createdAt,value
2023-11-18T00:00:47.555Z,5.75
2023-11-18T00:03:14.190Z,5.60
2023-11-18T00:05:40.861Z,5.50
2023-11-18T00:08:07.821Z,5.60
2023-11-18T00:10:34.581Z,5.10
2023-11-18T00:13:03.122Z,5.68
2023-11-18T00:15:29.858Z,6.22
2023-11-18T00:17:56.520Z,5.90
2023-11-18T00:20:25.251Z,5.63
2023-11-18T00:22:53.766Z,5.80
2023-11-18T00:25:20.446Z,5.82
2023-11-18T00:27:47.055Z,5.78
2023-11-18T00:30:15.196Z,5.35
2023-11-18T00:32:42.053Z,5.70
2023-11-18T00:35:11.370Z,5.60
2023-11-18T00:37:38.539Z,6.03
2023-11-18T00:40:05.860Z,5.45
2023-11-18T00:42:32.726Z,5.30
2023-11-18T00:44:59.404Z,5.53
2023-11-18T00:47:26.119Z,5.30
2023-11-18T00:49:55.724Z,5.63
2023-11-18T00:52:22.451Z,4.97
2023-11-18T00:54:49.066Z,5.40
2023-11-18T00:57:15.761Z,5.00
2023-11-18T00:59:44.182Z,5.75
2023-11-18T01:02:10.950Z,5.07
2023-11-18T01:04:37.683Z,5.50
2023-11-18T01:07:04.462Z,5.57
2023-11-18T01:09:37.444Z,5.88
2023-11-18T01:12:08.342Z,5.60
2023-11-18T01:14:38.933Z,5.57
2023-11-18T01:17:06.920Z,5.75
2023-11-18T01:19:34.756Z,5.75
2023-11-18T01:22:02.140Z,5.45
2023-11-18T01:24:29.344Z,5.50
2023-11-18T01:26:55.954Z,4.95
2023-11-18T01:29:23.430Z,5.47
2023-11-18T01:31:52.731Z,5.72
2023-11-18T01:34:23.684Z,5.80
2023-11-18T01:36:50.996Z,5.25
2023-11-18T01:39:18.992Z,5.20
2023-11-18T01:41:47.360Z,5.18
2023-11-18T01:44:16.995Z,5.22
2023-11-18T01:46:47.225Z,5.00
2023-11-18T01:49:15.499Z,5.20
2023-11-18T01:51:47.171Z,5.35
2023-11-18T01:54:19.810Z,5.50
2023-11-18T01:56:49.510Z,5.15
2023-11-18T01:59:19.884Z,5.03
2023-11-18T02:01:54.311Z,5.43
2023-11-18T02:04:22.351Z,5.18
2023-11-18T02:06:50.450Z,5.63
2023-11-18T02:09:28.601Z,5.38
2023-11-18T02:12:21.484Z,5.18
2023-11-18T02:14:50.753Z,5.90
2023-11-18T02:17:21.118Z,5.35
2023-11-18T02:19:48.183Z,5.43
2023-11-18T02:22:16.642Z,5.80
2023-11-18T02:24:43.624Z,5.53
2023-11-18T02:27:13.478Z,5.82
2023-11-18T02:29:46.769Z,5.10
2023-11-18T02:32:25.055Z,5.55
2023-11-18T02:35:11.373Z,6.00
2023-11-18T02:37:46.193Z,5.57
2023-11-18T02:40:20.004Z,5.45
2023-11-18T02:42:47.121Z,5.70
2023-11-18T02:45:18.450Z,6.00
2023-11-18T02:47:48.826Z,5.15
2023-11-18T02:50:16.659Z,5.50
2023-11-18T02:52:45.668Z,5.45
2023-11-18T02:55:12.500Z,5.72
2023-11-18T02:57:40.061Z,5.43
2023-11-18T03:00:19.927Z,5.53
2023-11-18T03:02:49.486Z,6.13
2023-11-18T03:05:16.311Z,5.70
2023-11-18T03:07:43.580Z,5.97
2023-11-18T03:10:14.568Z,6.20
2023-11-18T03:12:41.894Z,5.43
2023-11-18T03:15:12.830Z,6.07
2023-11-18T03:17:39.609Z,6.30
2023-11-18T03:20:09.401Z,6.13
2023-11-18T03:22:36.092Z,6.65
2023-11-18T03:25:03.107Z,6.20
2023-11-18T03:27:30.423Z,6.85
2023-11-18T03:29:57.062Z,6.75
2023-11-18T03:32:23.723Z,6.15
2023-11-18T03:34:50.379Z,6.07
2023-11-18T03:37:17.070Z,6.30
2023-11-18T03:39:43.725Z,6.30
2023-11-18T03:42:10.628Z,6.20
2023-11-18T03:44:38.693Z,6.13
2023-11-18T03:47:05.598Z,6.20
2023-11-18T03:49:32.483Z,6.07
2023-11-18T03:51:59.191Z,6.53
2023-11-18T03:54:25.879Z,6.60
2023-11-18T03:56:53.716Z,7.07
2023-11-18T03:59:20.410Z,6.28
2023-11-18T04:01:50.110Z,6.55
2023-11-18T04:04:17.939Z,6.68
2023-11-18T04:06:45.098Z,6.50
2023-11-18T04:09:11.789Z,6.65
2023-11-18T04:11:39.696Z,6.18
2023-11-18T04:14:06.492Z,6.68
2023-11-18T04:16:33.181Z,6.38
2023-11-18T04:18:59.817Z,7.05
2023-11-18T04:21:26.427Z,6.40
2023-11-18T04:23:53.107Z,6.68
2023-11-18T04:26:19.813Z,6.75
2023-11-18T04:28:46.415Z,7.18
2023-11-18T04:31:13.452Z,6.93
2023-11-18T04:33:41.486Z,6.88
2023-11-18T04:36:11.042Z,7.40
2023-11-18T04:38:37.640Z,6.88
2023-11-18T04:41:04.822Z,7.10
2023-11-18T04:43:39.229Z,6.90
2023-11-18T04:46:12.085Z,7.13
2023-11-18T04:48:42.411Z,7.22
2023-11-18T04:51:10.111Z,7.20
2023-11-18T04:53:36.767Z,7.68
2023-11-18T04:56:04.166Z,6.60
2023-11-18T04:58:30.904Z,6.63
2023-11-18T05:00:57.854Z,7.35
2023-11-18T05:03:25.481Z,7.20
2023-11-18T05:05:54.444Z,7.45
2023-11-18T05:08:23.009Z,7.28
2023-11-18T05:10:50.738Z,7.40
2023-11-18T05:13:18.406Z,6.57
2023-11-18T05:15:48.245Z,7.22
2023-11-18T05:18:16.661Z,7.28
2023-11-18T05:20:45.273Z,7.82
2023-11-18T05:23:12.765Z,7.60
2023-11-18T05:25:46.993Z,7.53
2023-11-18T05:28:14.787Z,7.32
2023-11-18T05:30:44.849Z,7.57
2023-11-18T05:33:16.372Z,6.82
2023-11-18T05:35:49.900Z,7.22
2023-11-18T05:38:22.771Z,7.70
2023-11-18T05:40:58.505Z,7.40
2023-11-18T05:43:32.195Z,6.90
2023-11-18T05:46:15.870Z,6.88
2023-11-18T05:48:46.285Z,6.95
2023-11-18T05:51:13.194Z,7.22
2023-11-18T05:53:47.175Z,6.60
2023-11-18T05:56:14.749Z,6.63
2023-11-18T05:58:41.662Z,7.65
2023-11-18T06:01:08.953Z,8.25
2023-11-18T06:03:40.561Z,8.02
2023-11-18T06:06:08.935Z,8.05
2023-11-18T06:08:36.771Z,7.65
2023-11-18T06:11:13.815Z,8.48
2023-11-18T06:13:47.748Z,7.88
2023-11-18T06:16:17.438Z,7.82
2023-11-18T06:18:45.609Z,7.47
2023-11-18T06:21:26.138Z,7.18
2023-11-18T06:23:53.290Z,7.38
2023-11-18T06:26:20.253Z,8.45
2023-11-18T06:28:47.815Z,7.97
2023-11-18T06:31:15.311Z,8.60
2023-11-18T06:33:47.006Z,8.32
2023-11-18T06:36:17.935Z,8.30
2023-11-18T06:38:45.568Z,9.00
2023-11-18T06:41:17.785Z,8.85
2023-11-18T06:44:06.193Z,8.60
2023-11-18T06:46:35.458Z,8.45
2023-11-18T06:49:07.770Z,8.52
2023-11-18T06:51:37.308Z,8.60
2023-11-18T06:54:10.110Z,8.93
2023-11-18T06:56:38.881Z,8.32
2023-11-18T06:59:08.879Z,8.65
2023-11-18T07:01:36.750Z,8.52
2023-11-18T07:04:04.013Z,8.60
2023-11-18T07:06:30.721Z,8.55
2023-11-18T07:09:01.784Z,8.52
2023-11-18T07:11:29.073Z,8.48
2023-11-18T07:14:00.355Z,8.02
2023-11-18T07:16:27.468Z,8.70
2023-11-18T07:18:54.380Z,8.25
2023-11-18T07:21:21.374Z,8.25
2023-11-18T07:23:48.176Z,8.23
2023-11-18T07:26:17.655Z,8.38
2023-11-18T07:28:45.280Z,8.43
2023-11-18T07:31:12.386Z,7.78
2023-11-18T07:33:40.379Z,8.82
2023-11-18T07:36:12.197Z,8.30
2023-11-18T07:38:38.805Z,8.20
2023-11-18T07:41:05.491Z,8.45
2023-11-18T07:43:34.901Z,8.20
2023-11-18T07:46:01.556Z,7.78
2023-11-18T07:48:29.240Z,8.45
2023-11-18T07:50:58.899Z,8.65
2023-11-18T07:53:26.759Z,8.25
2023-11-18T07:55:53.372Z,8.27
2023-11-18T07:58:21.286Z,8.32
2023-11-18T08:00:48.965Z,9.07
2023-11-18T08:03:15.781Z,8.73
2023-11-18T08:05:47.271Z,8.13
2023-11-18T08:08:17.999Z,9.55
2023-11-18T08:10:45.460Z,8.50
2023-11-18T08:13:12.560Z,8.98
2023-11-18T08:15:43.159Z,8.85
2023-11-18T08:18:13.046Z,9.38
2023-11-18T08:20:40.127Z,9.85
2023-11-18T08:23:06.907Z,9.82
2023-11-18T08:25:34.899Z,9.38
2023-11-18T08:28:01.953Z,9.43
2023-11-18T08:30:28.658Z,9.00
2023-11-18T08:32:55.291Z,9.30
2023-11-18T08:35:22.818Z,9.25
2023-11-18T08:37:49.594Z,9.15
2023-11-18T08:40:16.458Z,9.32
2023-11-18T08:42:51.995Z,10.15
2023-11-18T08:45:30.687Z,9.90
2023-11-18T08:47:58.398Z,9.52
2023-11-18T08:50:26.387Z,9.82
2023-11-18T08:52:59.219Z,9.70
2023-11-18T08:55:48.652Z,9.85
2023-11-18T08:58:23.079Z,9.15
2023-11-18T09:00:56.226Z,9.00
2023-11-18T09:03:27.168Z,8.10
2023-11-18T09:05:59.561Z,8.18
2023-11-18T09:08:30.828Z,7.32
2023-11-18T09:10:59.162Z,7.25
2023-11-18T09:13:32.924Z,7.80
2023-11-18T09:16:03.846Z,7.18
2023-11-18T09:18:31.905Z,6.25
2023-11-18T09:21:02.572Z,6.25
2023-11-18T09:23:30.900Z,6.47
2023-11-18T09:25:57.588Z,5.68
2023-11-18T09:28:25.626Z,5.50
2023-11-18T09:30:54.742Z,5.45
2023-11-18T09:33:30.248Z,5.03
2023-11-18T09:35:59.834Z,5.20
2023-11-18T09:38:30.164Z,4.95
2023-11-18T09:41:03.768Z,4.68
2023-11-18T09:43:34.086Z,5.07
2023-11-18T09:46:13.429Z,4.63
2023-11-18T09:48:48.350Z,4.30
2023-11-18T09:51:25.497Z,5.85
2023-11-18T09:53:54.531Z,4.72
2023-11-18T09:56:29.053Z,5.00
2023-11-18T09:59:32.341Z,3.70
2023-11-18T10:01:59.598Z,4.07
2023-11-18T10:04:28.861Z,3.90
2023-11-18T10:06:57.652Z,3.97
2023-11-18T10:09:38.402Z,4.05
2023-11-18T10:12:08.732Z,3.30
2023-11-18T10:14:44.719Z,3.25
2023-11-18T10:17:15.648Z,3.17
2023-11-18T10:20:04.619Z,3.30
2023-11-18T10:22:33.475Z,2.90
2023-11-18T10:25:02.392Z,3.03
2023-11-18T10:27:29.649Z,2.65
2023-11-18T10:30:03.672Z,2.50
2023-11-18T10:32:30.921Z,2.55
2023-11-18T10:34:58.798Z,2.50
2023-11-18T10:37:32.836Z,2.88
2023-11-18T10:40:05.385Z,2.67
2023-11-18T10:42:33.869Z,2.78
2023-11-18T10:45:04.432Z,3.05
2023-11-18T10:47:36.541Z,2.92
2023-11-18T10:50:03.994Z,2.47
2023-11-18T10:52:36.353Z,2.45
2023-11-18T10:55:12.481Z,2.55
2023-11-18T10:57:40.042Z,2.53
2023-11-18T11:00:20.684Z,2.50
2023-11-18T11:02:51.381Z,2.17
2023-11-18T11:05:34.605Z,2.30
2023-11-18T11:08:06.255Z,2.20
2023-11-18T11:10:33.213Z,1.83
2023-11-18T11:13:03.226Z,2.13
2023-11-18T11:15:44.763Z,2.00
2023-11-18T11:18:29.135Z,1.90
2023-11-18T11:21:08.624Z,2.00
2023-11-18T11:23:50.738Z,1.90
2023-11-18T11:26:45.681Z,2.00
2023-11-18T11:29:15.732Z,2.08
2023-11-18T11:31:49.376Z,2.40
2023-11-18T11:34:26.205Z,2.33
2023-11-18T11:39:27.492Z,1.98
2023-11-18T11:41:58.482Z,2.25
2023-11-18T11:44:32.434Z,2.20
2023-11-18T11:47:02.289Z,2.58
2023-11-18T11:49:42.703Z,2.30
2023-11-18T11:52:23.976Z,2.72
2023-11-18T11:55:06.793Z,2.50
2023-11-18T11:57:40.220Z,2.50
2023-11-18T12:00:17.113Z,3.00
2023-11-18T12:05:26.016Z,3.05
2023-11-18T12:07:56.864Z,2.88
2023-11-18T12:10:33.157Z,3.05
2023-11-18T12:13:18.003Z,3.20
2023-11-18T12:16:20.348Z,2.90
2023-11-18T12:19:25.545Z,2.60
2023-11-18T12:21:55.505Z,2.70
2023-11-18T12:24:23.513Z,2.60
2023-11-18T12:26:51.225Z,2.45
2023-11-18T12:29:37.601Z,2.20
2023-11-18T12:32:06.901Z,2.47
2023-11-18T12:34:56.062Z,2.28
2023-11-18T12:37:26.590Z,2.00
2023-11-18T12:40:03.963Z,2.40
2023-11-18T12:43:06.816Z,4.00
2023-11-18T12:45:42.141Z,2.50
2023-11-18T12:48:14.941Z,3.40
2023-11-18T12:50:46.836Z,2.80
2023-11-18T12:53:16.105Z,3.50
2023-11-18T12:55:43.773Z,3.58
2023-11-18T12:58:12.758Z,3.08
2023-11-18T13:00:43.896Z,2.65
2023-11-18T13:03:11.922Z,2.90
2023-11-18T13:05:38.854Z,3.33
2023-11-18T13:08:05.744Z,3.17
2023-11-18T13:10:32.555Z,3.03
2023-11-18T13:13:01.433Z,3.30
2023-11-18T13:15:28.448Z,3.10
2023-11-18T13:18:02.495Z,3.00
2023-11-18T13:20:30.108Z,3.00
2023-11-18T13:22:57.102Z,2.70
2023-11-18T13:25:24.715Z,3.30
2023-11-18T13:27:51.387Z,3.08
2023-11-18T13:30:19.413Z,2.78
2023-11-18T13:32:46.624Z,3.25
2023-11-18T13:35:19.058Z,3.40
2023-11-18T13:37:50.288Z,2.70
2023-11-18T13:40:20.177Z,2.80
2023-11-18T13:42:49.835Z,3.53
2023-11-18T13:45:30.488Z,2.80
2023-11-18T13:48:03.341Z,3.03
2023-11-18T13:50:30.275Z,2.78
2023-11-18T13:52:58.918Z,3.08
2023-11-18T13:55:29.083Z,3.70
2023-11-18T13:57:58.642Z,4.03
2023-11-18T14:00:32.166Z,3.30
2023-11-18T14:03:00.759Z,4.63
2023-11-18T14:05:27.683Z,3.95
2023-11-18T14:08:00.563Z,3.60
2023-11-18T14:10:27.556Z,3.90
2023-11-18T14:13:03.861Z,4.00
2023-11-18T14:15:31.620Z,3.58
2023-11-18T14:17:58.918Z,4.35
2023-11-18T14:20:25.803Z,3.72
2023-11-18T14:22:55.784Z,3.38
2023-11-18T14:25:25.257Z,3.88
2023-11-18T14:27:52.473Z,3.35
2023-11-18T14:30:20.687Z,3.63
2023-11-18T14:32:47.947Z,5.13
2023-11-18T14:35:18.361Z,5.93
2023-11-18T14:37:46.296Z,4.60
2023-11-18T14:40:17.280Z,4.90
2023-11-18T14:42:46.649Z,4.80
2023-11-18T14:45:16.760Z,3.92
2023-11-18T14:47:49.357Z,3.58
2023-11-18T14:50:20.806Z,3.53
2023-11-18T14:53:00.059Z,3.05
2023-11-18T14:55:30.793Z,3.90
2023-11-18T14:57:57.626Z,3.38
2023-11-18T15:00:27.716Z,3.55
2023-11-18T15:03:00.541Z,3.28
2023-11-18T15:05:28.490Z,4.80
2023-11-18T15:07:56.727Z,5.15
2023-11-18T15:10:25.420Z,3.78
2023-11-18T15:12:54.337Z,3.70
2023-11-18T15:15:32.567Z,3.50
2023-11-18T15:18:00.514Z,3.58
2023-11-18T15:20:27.289Z,3.25
2023-11-18T15:22:54.178Z,3.30
2023-11-18T15:25:20.875Z,3.53
2023-11-18T15:27:48.728Z,3.50
2023-11-18T15:30:17.552Z,3.45
2023-11-18T15:32:47.772Z,5.20
2023-11-18T15:35:17.605Z,4.70
2023-11-18T15:37:48.624Z,3.88
2023-11-18T15:40:20.556Z,3.20
2023-11-18T15:42:52.520Z,3.22
2023-11-18T15:45:20.056Z,3.42
2023-11-18T15:47:49.135Z,3.67
2023-11-18T15:50:18.007Z,3.70
2023-11-18T15:52:46.495Z,3.65
2023-11-18T15:55:16.153Z,3.53
2023-11-18T15:57:44.562Z,3.80
2023-11-18T16:00:16.927Z,3.40
2023-11-18T16:02:48.687Z,3.63
2023-11-18T16:05:18.038Z,3.70
2023-11-18T16:07:52.783Z,5.03
2023-11-18T16:10:22.501Z,4.97
2023-11-18T16:12:52.027Z,3.70
2023-11-18T16:15:23.079Z,4.05
2023-11-18T16:17:53.582Z,3.90
2023-11-18T16:20:23.134Z,3.50
2023-11-18T16:22:51.622Z,3.25
2023-11-18T16:25:24.249Z,3.85
2023-11-18T16:27:52.268Z,3.53
2023-11-18T16:30:25.100Z,3.67
2023-11-18T16:32:55.457Z,10.77
2023-11-18T16:35:22.404Z,5.80
2023-11-18T16:37:50.361Z,5.45
2023-11-18T16:40:17.848Z,6.72
2023-11-18T16:42:45.900Z,6.45
2023-11-18T16:45:13.691Z,10.68
2023-11-18T16:47:41.336Z,7.78
2023-11-18T16:50:11.949Z,5.97
2023-11-18T16:52:42.430Z,6.07
2023-11-18T16:55:10.306Z,5.72
2023-11-18T16:57:37.886Z,5.95
2023-11-18T17:00:23.344Z,6.57
2023-11-18T17:02:59.503Z,5.60
2023-11-18T17:05:30.068Z,4.78
2023-11-18T17:07:57.518Z,4.88
2023-11-18T17:10:24.592Z,4.20
2023-11-18T17:12:52.654Z,4.32
2023-11-18T17:15:19.914Z,4.50
2023-11-18T17:18:11.033Z,4.75
2023-11-18T17:20:37.729Z,4.60
2023-11-18T17:23:04.665Z,5.13
2023-11-18T17:25:31.378Z,4.57
2023-11-18T17:27:58.873Z,4.68
2023-11-18T17:30:25.477Z,4.95
2023-11-18T17:32:55.324Z,4.78
2023-11-18T17:35:22.783Z,4.32
2023-11-18T17:37:50.130Z,4.65
2023-11-18T17:40:22.591Z,5.80
2023-11-18T17:42:52.392Z,6.20
2023-11-18T17:45:20.606Z,7.00
2023-11-18T17:47:47.271Z,7.40
2023-11-18T17:50:16.372Z,6.68
2023-11-18T17:52:47.923Z,6.80
2023-11-18T17:55:15.869Z,6.88
2023-11-18T17:57:43.594Z,6.25
2023-11-18T18:00:20.344Z,6.18
2023-11-18T18:02:47.653Z,6.22
2023-11-18T18:05:14.377Z,6.05
2023-11-18T18:07:41.717Z,6.50
2023-11-18T18:10:09.737Z,6.47
2023-11-18T18:12:37.390Z,6.78
2023-11-18T18:15:09.546Z,6.40
2023-11-18T18:17:37.712Z,6.38
2023-11-18T18:20:10.826Z,6.80
2023-11-18T18:22:39.401Z,6.72
2023-11-18T18:25:07.050Z,7.40
2023-11-18T18:27:33.959Z,7.55
2023-11-18T18:30:01.302Z,7.93
2023-11-18T18:32:28.237Z,7.57
2023-11-18T18:34:54.849Z,7.60
2023-11-18T18:37:23.366Z,8.40
2023-11-18T18:39:53.645Z,8.00
2023-11-18T18:42:21.062Z,8.05
2023-11-18T18:44:48.403Z,8.20
2023-11-18T18:47:16.281Z,7.78
2023-11-18T18:49:43.449Z,8.68
2023-11-18T18:52:10.440Z,8.75
2023-11-18T18:54:37.080Z,8.82
2023-11-18T18:57:06.820Z,8.93
2023-11-18T18:59:33.654Z,8.32
2023-11-18T19:02:00.447Z,9.02
2023-11-18T19:04:27.314Z,8.98
2023-11-18T19:06:56.065Z,8.52
2023-11-18T19:09:22.902Z,8.60
2023-11-18T19:11:50.233Z,8.90
2023-11-18T19:14:16.991Z,8.70
2023-11-18T19:16:43.828Z,8.75
2023-11-18T19:19:11.200Z,9.20
2023-11-18T19:21:38.119Z,9.25
2023-11-18T19:24:05.354Z,8.63
2023-11-18T19:26:37.137Z,11.00
2023-11-18T19:29:04.607Z,10.77
2023-11-18T19:31:31.327Z,10.45
2023-11-18T19:33:59.544Z,11.02
2023-11-18T19:36:26.697Z,10.63
2023-11-18T19:38:53.363Z,9.98
2023-11-18T19:41:19.985Z,11.05
2023-11-18T19:43:46.762Z,10.55
2023-11-18T19:46:13.370Z,9.98
2023-11-18T19:48:40.026Z,11.93
2023-11-18T19:51:09.120Z,10.25
2023-11-18T19:53:35.785Z,10.65
2023-11-18T19:56:02.649Z,9.85
2023-11-18T19:58:29.263Z,10.35
2023-11-18T20:00:56.520Z,9.77
2023-11-18T20:03:23.605Z,10.23
2023-11-18T20:05:50.906Z,10.45
2023-11-18T20:08:20.153Z,10.55
2023-11-18T20:10:48.270Z,10.20
2023-11-18T20:13:15.853Z,10.85
2023-11-18T20:15:42.570Z,10.70
2023-11-18T20:18:12.559Z,10.35
2023-11-18T20:20:39.455Z,10.38
2023-11-18T20:23:06.402Z,10.20
2023-11-18T20:25:33.173Z,10.40
2023-11-18T20:27:59.791Z,10.00
2023-11-18T20:30:26.510Z,9.80
2023-11-18T20:32:53.261Z,10.43
2023-11-18T20:35:20.172Z,10.57
2023-11-18T20:37:48.876Z,10.13
2023-11-18T20:40:21.928Z,10.07
2023-11-18T20:42:50.184Z,9.50
2023-11-18T20:45:18.957Z,9.18
2023-11-18T20:47:46.790Z,9.63
2023-11-18T20:50:14.338Z,9.80
2023-11-18T20:52:42.408Z,8.70
2023-11-18T20:55:09.930Z,9.23
2023-11-18T20:57:37.435Z,8.80
2023-11-18T21:00:08.701Z,8.57
2023-11-18T21:02:36.297Z,8.40
2023-11-18T21:05:06.137Z,8.68
2023-11-18T21:07:33.276Z,9.32
2023-11-18T21:09:59.929Z,9.25
2023-11-18T21:12:26.691Z,9.35
2023-11-18T21:14:53.640Z,9.45
2023-11-18T21:17:25.591Z,8.88
2023-11-18T21:19:55.944Z,9.05
2023-11-18T21:22:23.973Z,9.43
2023-11-18T21:24:50.526Z,8.23
2023-11-18T21:27:18.182Z,8.48
2023-11-18T21:29:44.874Z,8.15
2023-11-18T21:32:12.259Z,8.77
2023-11-18T21:34:41.653Z,8.32
2023-11-18T21:37:11.366Z,9.63
2023-11-18T21:39:39.942Z,9.00
2023-11-18T21:42:09.375Z,8.05
2023-11-18T21:44:36.708Z,8.90
2023-11-18T21:47:03.976Z,9.20
2023-11-18T21:49:30.642Z,9.32
2023-11-18T21:51:57.273Z,8.85
2023-11-18T21:54:26.179Z,8.43
2023-11-18T21:56:53.142Z,8.88
2023-11-18T21:59:19.829Z,8.63
2023-11-18T22:01:46.478Z,8.95
2023-11-18T22:04:13.197Z,8.98
2023-11-18T22:06:39.851Z,9.18
2023-11-18T22:09:06.542Z,8.45
2023-11-18T22:14:04.271Z,8.23
2023-11-18T22:16:31.035Z,8.90
2023-11-18T22:18:57.709Z,8.65
2023-11-18T22:21:24.655Z,8.23
2023-11-18T22:23:51.395Z,8.60
2023-11-18T22:26:18.210Z,8.60
2023-11-18T22:28:45.906Z,8.15
2023-11-18T22:31:12.643Z,8.68
2023-11-18T22:33:39.417Z,8.60
2023-11-18T22:36:08.726Z,8.38
2023-11-18T22:38:35.499Z,8.25
2023-11-18T22:41:05.158Z,8.52
2023-11-18T22:43:31.942Z,8.07
2023-11-18T22:45:58.555Z,8.43
2023-11-18T22:48:26.891Z,9.15
2023-11-18T22:50:53.512Z,8.38
2023-11-18T22:53:21.390Z,8.43
2023-11-18T22:55:49.133Z,9.35
2023-11-18T22:58:15.903Z,8.75
2023-11-18T23:00:52.570Z,7.93
2023-11-18T23:03:20.063Z,7.93
2023-11-18T23:05:47.309Z,7.43
2023-11-18T23:08:18.317Z,8.43
2023-11-18T23:10:47.390Z,9.00
2023-11-18T23:13:14.998Z,7.78
2023-11-18T23:15:42.025Z,8.20
2023-11-18T23:18:10.493Z,8.05
2023-11-18T23:20:37.666Z,8.60
2023-11-18T23:23:05.996Z,7.60
2023-11-18T23:25:32.994Z,7.10
2023-11-18T23:28:02.215Z,6.90
2023-11-18T23:30:29.654Z,7.50
2023-11-18T23:32:56.413Z,7.20
2023-11-18T23:35:23.094Z,7.00
2023-11-18T23:37:52.850Z,6.05
2023-11-18T23:40:20.856Z,6.63
2023-11-18T23:42:48.950Z,6.55
2023-11-18T23:45:19.724Z,6.85
2023-11-18T23:47:51.027Z,6.38
2023-11-18T23:50:17.908Z,6.07
2023-11-18T23:52:44.518Z,5.70
2023-11-18T23:55:14.582Z,6.05
2023-11-18T23:57:42.380Z,5.88
